Time;durP1;ratioP1;P1;durP2;ratioP2;P2;SDS_P1;SDS_P2;PMS_P1;PMS_P2;Temp;Humidity;BMP_temperature;BMP_pressure;BME280_temperature;BME280_humidity;BME280_pressure;Samples;Min_cycle;Max_cycle;Signal;HPM_P1;HPM_P2
2022/10/05 00:01:40;;;;;;;11.40;3.10;;;;;;;7.91;100.00;96885.22;5042938;28;20240;-70
2022/10/05 00:04:14;;;;;;;4.90;2.80;;;;;;;7.94;100.00;96881.50;5042580;28;20212;-70
2022/10/05 00:06:40;;;;;;;4.63;2.83;;;;;;;7.91;100.00;96884.41;5044395;28;20687;-71
2022/10/05 00:09:13;;;;;;;6.20;3.13;;;;;;;8.04;100.00;96885.75;5044931;28;20198;-70
2022/10/05 00:11:39;;;;;;;4.37;2.73;;;;;;;7.89;100.00;96883.72;5045483;28;20228;-71
2022/10/05 00:14:12;;;;;;;4.23;2.80;;;;;;;7.92;100.00;96886.06;5044266;28;20212;-71
2022/10/05 00:16:38;;;;;;;6.53;2.57;;;;;;;7.83;100.00;96889.56;5045358;28;20250;-71
2022/10/05 00:19:15;;;;;;;4.07;2.40;;;;;;;7.90;100.00;96888.84;5044732;28;20229;-71
2022/10/05 00:21:41;;;;;;;4.83;2.97;;;;;;;7.75;100.00;96894.72;5045215;28;20564;-71
2022/10/05 00:24:12;;;;;;;4.40;2.63;;;;;;;7.86;100.00;96888.47;5044545;28;20208;-70
2022/10/05 00:26:39;;;;;;;6.10;3.27;;;;;;;7.82;100.00;96890.53;5045022;28;20708;-70
2022/10/05 00:29:16;;;;;;;5.00;3.20;;;;;;;7.91;100.00;96884.41;5043962;28;20205;-71
2022/10/05 00:31:43;;;;;;;9.70;3.67;;;;;;;7.77;100.00;96877.03;5044573;28;20232;-70
2022/10/05 00:34:09;;;;;;;10.83;3.40;;;;;;;7.72;100.00;96889.75;5044250;28;20219;-70
2022/10/05 00:36:38;;;;;;;5.83;2.50;;;;;;;7.70;100.00;96889.06;5044545;28;20197;-71
2022/10/05 00:39:04;;;;;;;4.83;2.37;;;;;;;7.47;100.00;96882.53;5044461;28;20232;-71
2022/10/05 00:41:45;;;;;;;4.87;2.87;;;;;;;7.61;100.00;96887.31;5044280;28;20590;-71
2022/10/05 00:44:34;;;;;;;6.13;3.30;;;;;;;7.68;100.00;96888.38;5043592;28;20197;-70
2022/10/05 00:47:11;;;;;;;6.37;3.20;;;;;;;7.70;100.00;96886.44;5044717;28;20577;-71
2022/10/05 00:49:54;;;;;;;4.60;2.83;;;;;;;7.72;100.00;96892.38;5044698;28;20566;-71
2022/10/05 00:52:31;;;;;;;5.37;2.87;;;;;;;7.68;100.00;96892.81;5043810;28;20205;-70
2022/10/05 00:55:07;;;;;;;4.60;2.70;;;;;;;7.70;100.00;96888.22;5044326;28;20211;-71
2022/10/05 00:57:45;;;;;;;4.13;2.47;;;;;;;7.65;100.00;96887.84;5044507;28;20221;-71
2022/10/05 01:00:16;;;;;;;7.77;3.17;;;;;;;7.45;100.00;96884.44;5044000;28;20221;-71
2022/10/05 01:02:54;;;;;;;6.67;3.03;;;;;;;7.34;100.00;96882.00;5043550;28;20665;-71
2022/10/05 01:05:34;;;;;;;6.40;3.13;;;;;;;7.41;100.00;96880.47;5044170;28;20236;-71
2022/10/05 01:08:14;;;;;;;4.17;2.50;;;;;;;7.49;100.00;96875.31;5044564;28;20208;-70
2022/10/05 01:10:47;;;;;;;3.73;2.00;;;;;;;7.42;100.00;96866.41;5044091;28;20739;-71
2022/10/05 01:13:26;;;;;;;4.07;2.33;;;;;;;7.37;100.00;96857.31;5043031;28;20209;-71
2022/10/05 01:16:02;;;;;;;3.40;2.30;;;;;;;7.29;100.00;96847.53;5044365;28;20209;-71
2022/10/05 01:18:38;;;;;;;3.57;2.10;;;;;;;7.31;100.00;96848.19;5044171;28;20225;-71
2022/10/05 01:21:11;;;;;;;2.87;1.90;;;;;;;7.31;100.00;96850.81;5043691;28;20256;-71
2022/10/05 01:23:58;;;;;;;6.07;2.70;;;;;;;7.36;100.00;96843.34;5043087;28;20216;-71
2022/10/05 01:27:00;;;;;;;3.53;1.97;;;;;;;7.45;100.00;96842.50;5043835;28;20224;-71
2022/10/05 01:29:33;;;;;;;3.70;2.20;;;;;;;7.32;100.00;96839.38;5043902;28;20201;-71
2022/10/05 01:32:09;;;;;;;3.67;2.23;;;;;;;7.22;100.00;96839.53;5043245;28;20228;-71
2022/10/05 01:34:40;;;;;;;4.27;2.40;;;;;;;7.28;100.00;96848.50;5043762;28;20208;-71
2022/10/05 01:37:15;;;;;;;4.13;2.30;;;;;;;7.28;100.00;96838.00;5043738;28;20292;-71
2022/10/05 01:39:49;;;;;;;3.90;2.30;;;;;;;7.30;100.00;96828.19;5043576;28;20205;-71
2022/10/05 01:42:24;;;;;;;5.53;2.77;;;;;;;7.37;100.00;96817.97;5042312;28;20682;-71
2022/10/05 01:45:02;;;;;;;4.67;3.10;;;;;;;7.41;100.00;96824.59;5043811;28;20200;-71
2022/10/05 01:47:41;;;;;;;4.17;2.60;;;;;;;7.43;100.00;96825.25;5043427;28;20216;-71
2022/10/05 01:50:12;;;;;;;4.47;2.50;;;;;;;7.45;100.00;96829.38;5043150;28;20221;-71
2022/10/05 01:52:48;;;;;;;5.53;2.77;;;;;;;7.45;100.00;96829.38;5042508;28;20673;-71
2022/10/05 01:55:22;;;;;;;5.70;2.80;;;;;;;7.45;100.00;96824.16;5043626;28;20205;-71
2022/10/05 01:58:00;;;;;;;5.33;2.90;;;;;;;7.44;100.00;96827.72;5042418;28;20790;-71
2022/10/05 02:00:31;;;;;;;4.80;2.50;;;;;;;7.41;100.00;96825.41;5043098;28;20259;-71
2022/10/05 02:03:03;;;;;;;5.40;2.90;;;;;;;7.48;100.00;96829.09;5042319;28;20212;-71
2022/10/05 02:05:37;;;;;;;49.13;3.90;;;;;;;7.46;100.00;96819.75;5043041;28;20568;-71
2022/10/05 02:08:10;;;;;;;8.80;3.27;;;;;;;7.51;100.00;96830.59;5043002;28;20213;-71
2022/10/05 02:10:40;;;;;;;26.77;4.07;;;;;;;7.52;100.00;96824.38;5042918;28;20217;-71
2022/10/05 02:13:13;;;;;;;7.83;3.47;;;;;;;7.63;100.00;96830.28;5042149;28;20193;-71
2022/10/05 02:15:45;;;;;;;5.83;3.40;;;;;;;7.59;100.00;96836.78;5043011;28;20205;-71
2022/10/05 02:18:18;;;;;;;38.10;3.53;;;;;;;7.52;100.00;96840.13;5042726;28;20228;-71
2022/10/05 02:20:47;;;;;;;10.97;3.47;;;;;;;7.42;100.00;96845.41;5042681;28;20464;-71
2022/10/05 02:23:19;;;;;;;6.37;3.40;;;;;;;7.35;100.00;96835.63;5041862;28;20356;-71
2022/10/05 02:25:50;;;;;;;8.63;3.90;;;;;;;7.44;100.00;96842.66;5042641;28;20551;-71
2022/10/05 02:28:22;;;;;;;7.00;3.20;;;;;;;7.59;100.00;96838.59;5042580;28;20206;-71
2022/10/05 02:30:55;;;;;;;4.33;2.57;;;;;;;7.51;100.00;96831.44;5042794;28;20586;-71
2022/10/05 02:33:27;;;;;;;5.53;3.17;;;;;;;7.45;100.00;96834.63;5041843;28;20556;-71
2022/10/05 02:35:53;;;;;;;9.67;3.60;;;;;;;7.26;100.00;96829.44;5042434;28;20568;-71
2022/10/05 02:38:30;;;;;;;6.20;3.43;;;;;;;7.41;100.00;96838.50;5042622;28;20228;-71
2022/10/05 02:41:08;;;;;;;6.27;3.23;;;;;;;7.44;100.00;96834.78;5042345;28;20602;-71
2022/10/05 02:43:47;;;;;;;6.47;3.07;;;;;;;7.47;100.00;96840.56;5042111;28;20204;-71
2022/10/05 02:46:24;;;;;;;9.83;2.97;;;;;;;7.44;100.00;96837.41;5042630;28;20197;-71
2022/10/05 02:49:03;;;;;;;4.47;2.60;;;;;;;7.46;100.00;96825.81;5042117;28;20212;-71
2022/10/05 02:51:39;;;;;;;8.13;3.20;;;;;;;7.39;100.00;96827.34;5041995;28;20228;-71
2022/10/05 02:54:15;;;;;;;8.33;3.40;;;;;;;7.45;100.00;96832.00;5041923;28;20208;-71
2022/10/05 02:56:54;;;;;;;8.23;3.33;;;;;;;7.45;100.00;96824.16;5042306;28;20204;-71
2022/10/05 02:59:27;;;;;;;8.93;3.63;;;;;;;7.46;100.00;96831.03;5040731;28;20220;-71
2022/10/05 03:02:01;;;;;;;8.63;3.50;;;;;;;7.52;100.00;96827.84;5042354;28;20286;-71
2022/10/05 03:04:36;;;;;;;8.17;3.60;;;;;;;7.60;100.00;96825.34;5041534;28;20196;-71
2022/10/05 03:07:12;;;;;;;10.60;3.50;;;;;;;7.61;100.00;96819.13;5042366;28;20215;-71
2022/10/05 03:09:45;;;;;;;6.70;3.43;;;;;;;7.59;100.00;96818.44;5042284;28;20287;-71
2022/10/05 03:12:27;;;;;;;6.90;3.10;;;;;;;7.67;100.00;96823.78;5042074;28;20193;-71
2022/10/05 03:15:03;;;;;;;7.53;3.80;;;;;;;7.71;100.00;96825.13;5042192;28;20709;-71
2022/10/05 03:17:37;;;;;;;8.50;3.77;;;;;;;7.72;100.00;96831.22;5042728;28;20212;-71
2022/10/05 03:20:17;;;;;;;13.43;3.50;;;;;;;7.70;100.00;96825.28;5041628;28;20694;-71
2022/10/05 03:22:49;;;;;;;21.27;4.37;;;;;;;7.66;100.00;96821.28;5041402;28;20201;-71
2022/10/05 03:25:43;;;;;;;14.80;4.20;;;;;;;7.75;100.00;96817.81;5041998;28;20209;-71
2022/10/05 03:28:16;;;;;;;7.70;3.83;;;;;;;7.77;100.00;96808.81;5041903;28;20205;-71
2022/10/05 03:30:48;;;;;;;19.80;4.70;;;;;;;7.71;100.00;96809.38;5042092;28;20225;-71
2022/10/05 03:33:22;;;;;;;10.57;5.03;;;;;;;7.77;100.00;96802.75;5041068;28;20202;-71
2022/10/05 03:35:58;;;;;;;19.80;4.57;;;;;;;7.75;100.00;96795.03;5041944;28;20670;-71
2022/10/05 03:38:31;;;;;;;26.10;4.20;;;;;;;7.73;100.00;96790.91;5042299;28;20235;-71
2022/10/05 03:41:02;;;;;;;7.40;3.73;;;;;;;7.70;100.00;96792.03;5041909;28;20225;-71
2022/10/05 03:43:52;;;;;;;7.53;3.80;;;;;;;7.77;100.00;96795.69;5041333;28;20212;-71
2022/10/05 03:46:32;;;;;;;13.37;5.10;;;;;;;7.75;100.00;96796.81;5041525;28;20197;-71
2022/10/05 03:49:10;;;;;;;16.17;4.73;;;;;;;7.76;100.00;96801.09;5041579;28;20212;-71
2022/10/05 03:51:41;;;;;;;11.57;4.57;;;;;;;7.63;100.00;96798.81;5042011;28;20229;-71
2022/10/05 03:54:17;;;;;;;15.80;4.70;;;;;;;7.66;100.00;96803.78;5041069;28;20212;-71
2022/10/05 03:56:51;;;;;;;27.97;4.37;;;;;;;7.63;100.00;96801.44;5042230;28;20193;-71
2022/10/05 03:59:21;;;;;;;9.87;4.33;;;;;;;7.50;100.00;96800.94;5041641;28;20225;-71
2022/10/05 04:01:51;;;;;;;12.27;4.17;;;;;;;7.34;100.00;96813.84;5041688;28;20499;-71
2022/10/05 04:04:26;;;;;;;14.87;3.70;;;;;;;7.38;100.00;96806.50;5042189;28;20213;-71
2022/10/05 04:06:54;;;;;;;12.43;3.70;;;;;;;7.36;100.00;96811.09;5045198;28;20569;-71
2022/10/05 04:09:24;;;;;;;28.43;4.00;;;;;;;7.44;100.00;96817.25;5045349;28;20224;-71
2022/10/05 04:11:56;;;;;;;30.13;4.13;;;;;;;7.24;100.00;96817.44;5045051;28;20748;-71
2022/10/05 04:14:27;;;;;;;6.07;3.50;;;;;;;7.21;100.00;96811.69;5044958;28;20201;-71
2022/10/05 04:16:58;;;;;;;8.20;3.70;;;;;;;7.21;100.00;96814.31;5045205;28;20205;-71
2022/10/05 04:19:34;;;;;;;10.47;3.47;;;;;;;7.21;100.00;96811.69;5045015;28;20221;-71
2022/10/05 04:22:08;;;;;;;7.07;3.50;;;;;;;7.21;100.00;96806.44;5045091;28;20635;-71
2022/10/05 04:24:40;;;;;;;8.40;3.87;;;;;;;7.21;100.00;96814.31;5044470;28;20512;-71
2022/10/05 04:27:12;;;;;;;6.17;3.50;;;;;;;7.16;100.00;96812.09;5044955;28;20209;-71
2022/10/05 04:29:44;;;;;;;8.33;4.13;;;;;;;7.13;100.00;96807.16;5045510;28;20331;-71
2022/10/05 04:32:30;;;;;;;23.03;3.63;;;;;;;7.25;100.00;96815.69;5044861;28;20209;-71
2022/10/05 04:35:19;;;;;;;15.20;3.40;;;;;;;7.18;100.00;96804.09;5044664;28;20213;-71
2022/10/05 04:37:53;;;;;;;6.07;3.47;;;;;;;7.11;100.00;96809.09;5045170;28;20208;-71
2022/10/05 04:40:35;;;;;;;8.13;3.40;;;;;;;7.18;100.00;96797.06;5044447;28;20236;-71
2022/10/05 04:43:10;;;;;;;6.90;3.63;;;;;;;7.14;100.00;96789.63;5043711;28;20582;-74
2022/10/05 04:45:50;;;;;;;6.17;3.47;;;;;;;7.11;100.00;96797.78;5044769;28;20203;-71
2022/10/05 04:48:33;;;;;;;5.63;2.93;;;;;;;7.16;100.00;96801.63;5044868;28;20224;-71
2022/10/05 04:51:16;;;;;;;4.00;2.90;;;;;;;7.10;100.00;96796.94;5044302;28;20225;-72
2022/10/05 04:53:51;;;;;;;5.57;2.80;;;;;;;7.03;100.00;96795.06;5044294;28;20201;-71
2022/10/05 04:56:24;;;;;;;6.20;3.00;;;;;;;7.00;100.00;96795.31;5044324;28;20207;-71
2022/10/05 04:59:07;;;;;;;5.87;3.33;;;;;;;7.05;100.00;96788.72;5044415;28;20229;-71
2022/10/05 05:01:52;;;;;;;5.83;2.90;;;;;;;7.05;100.00;96791.31;5044371;28;20228;-71
2022/10/05 05:04:35;;;;;;;7.57;2.40;;;;;;;7.05;100.00;96785.25;5043322;28;20205;-71
2022/10/05 05:07:15;;;;;;;7.50;2.93;;;;;;;6.90;100.00;96781.44;5044147;28;20201;-71
2022/10/05 05:10:08;;;;;;;6.00;3.43;;;;;;;6.99;100.00;96786.66;5044029;28;20197;-71
2022/10/05 05:12:47;;;;;;;10.03;4.20;;;;;;;7.02;100.00;96791.59;5043053;28;20197;-71
2022/10/05 05:15:28;;;;;;;20.23;7.83;;;;;;;7.05;100.00;96788.72;5043455;28;20661;-71
2022/10/05 05:18:10;;;;;;;29.07;10.03;;;;;;;7.14;100.00;96781.75;5044164;28;20632;-71
2022/10/05 05:20:51;;;;;;;31.30;12.50;;;;;;;7.19;100.00;96785.59;5044116;28;20233;-71
2022/10/05 05:23:27;;;;;;;23.90;9.93;;;;;;;7.27;100.00;96783.91;5043493;28;20347;-71
2022/10/05 05:26:01;;;;;;;30.20;11.87;;;;;;;7.31;100.00;96798.41;5044024;28;20219;-71
2022/10/05 05:28:36;;;;;;;21.90;7.90;;;;;;;7.36;100.00;96785.69;5043725;28;20446;-71
2022/10/05 05:31:09;;;;;;;13.63;6.00;;;;;;;7.39;100.00;96795.88;5043731;28;20602;-71
2022/10/05 05:33:50;;;;;;;14.73;5.97;;;;;;;7.40;100.00;96794.09;5043166;28;20372;-71
2022/10/05 05:36:33;;;;;;;12.43;5.07;;;;;;;7.46;100.00;96793.53;5043595;28;20212;-71
2022/10/05 05:39:18;;;;;;;9.50;4.77;;;;;;;7.46;100.00;96793.53;5043456;28;20229;-71
2022/10/05 05:41:57;;;;;;;9.80;5.33;;;;;;;7.50;100.00;96795.69;5043549;28;20515;-71
2022/10/05 05:44:28;;;;;;;12.27;5.27;;;;;;;7.32;100.00;96792.19;5042597;28;20628;-71
2022/10/05 05:47:00;;;;;;;10.13;3.93;;;;;;;7.40;100.00;96797.53;5043302;28;20267;-71
2022/10/05 05:49:35;;;;;;;13.77;5.30;;;;;;;7.29;100.00;96808.22;5042975;28;20209;-71
2022/10/05 05:52:09;;;;;;;9.23;3.63;;;;;;;7.36;100.00;96809.28;5043056;28;20938;-71
2022/10/05 05:54:40;;;;;;;12.50;4.67;;;;;;;7.38;100.00;96809.97;5042887;28;20216;-71
2022/10/05 05:57:12;;;;;;;9.80;4.10;;;;;;;7.50;100.00;96819.28;5043180;28;20670;-71
2022/10/05 06:00:04;;;;;;;10.17;4.30;;;;;;;7.61;100.00;96813.03;5043254;28;20236;-71
2022/10/05 06:02:39;;;;;;;10.47;5.30;;;;;;;7.72;100.00;96816.28;5042719;28;20201;-71
2022/10/05 06:05:22;;;;;;;7.37;3.70;;;;;;;7.79;100.00;96825.25;5043244;28;20205;-71
2022/10/05 06:07:51;;;;;;;12.17;4.43;;;;;;;7.61;100.00;96832.25;5042931;28;20227;-71
2022/10/05 06:10:26;;;;;;;8.20;4.13;;;;;;;7.77;100.00;96834.25;5042944;28;20217;-71
2022/10/05 06:12:57;;;;;;;6.40;3.17;;;;;;;7.80;100.00;96829.50;5042330;28;20209;-71
2022/10/05 06:15:33;;;;;;;12.43;4.20;;;;;;;7.83;100.00;96831.00;5043381;28;20201;-71
2022/10/05 06:18:04;;;;;;;7.70;3.57;;;;;;;7.90;100.00;96840.78;5043005;28;20574;-71
2022/10/05 06:20:36;;;;;;;6.63;3.77;;;;;;;8.04;100.00;96845.53;5042751;28;20232;-71
2022/10/05 06:23:09;;;;;;;11.50;2.93;;;;;;;8.15;100.00;96845.38;5042150;28;20212;-71
2022/10/05 06:25:49;;;;;;;5.07;3.20;;;;;;;8.18;100.00;96851.13;5042744;28;20204;-71
2022/10/05 06:28:15;;;;;;;8.20;3.03;;;;;;;8.14;100.00;96856.84;5041782;28;20674;-71
2022/10/05 06:30:54;;;;;;;8.30;4.30;;;;;;;8.31;100.00;96850.78;5042827;28;20225;-71
2022/10/05 06:33:45;;;;;;;6.33;3.20;;;;;;;8.48;100.00;96853.44;5041857;28;20205;-71
2022/10/05 06:36:23;;;;;;;7.10;3.87;;;;;;;8.61;100.00;96859.16;5042905;28;20403;-71
2022/10/05 06:39:17;;;;;;;6.83;4.17;;;;;;;8.75;100.00;96854.19;5042555;28;20208;-70
2022/10/05 06:42:06;;;;;;;12.77;4.10;;;;;;;8.83;100.00;96864.75;5036142;28;20220;-71
2022/10/05 06:44:42;;;;;;;10.93;4.20;;;;;;;8.84;100.00;96870.84;5041947;28;20212;-71
2022/10/05 06:47:17;;;;;;;6.63;3.97;;;;;;;8.86;100.00;96867.09;5042287;28;20205;-70
2022/10/05 06:49:53;;;;;;;7.17;3.90;;;;;;;8.86;100.00;96874.97;5042216;28;20232;-71
2022/10/05 06:52:28;;;;;;;9.57;3.80;;;;;;;9.05;100.00;96872.19;5041535;28;20224;-71
2022/10/05 06:55:09;;;;;;;10.13;4.40;;;;;;;9.07;100.00;96872.84;5042656;28;20208;-71
2022/10/05 06:57:52;;;;;;;7.33;4.03;;;;;;;9.32;100.00;96872.88;5042582;28;20232;-71
2022/10/05 07:00:20;;;;;;;9.17;4.60;;;;;;;9.27;100.00;96875.13;5041989;28;20224;-71
2022/10/05 07:02:54;;;;;;;10.37;5.10;;;;;;;9.36;100.00;96883.94;5041361;28;20623;-70
2022/10/05 07:05:47;;;;;;;9.50;4.80;;;;;;;9.52;100.00;96881.38;5042118;28;20208;-71
2022/10/05 07:08:21;;;;;;;11.23;4.63;;;;;;;9.57;100.00;96868.59;5041904;28;20197;-70
2022/10/05 07:11:03;;;;;;;12.77;4.90;;;;;;;9.58;100.00;96873.69;5042090;28;20244;-70
2022/10/05 07:13:46;;;;;;;15.17;5.20;;;;;;;9.80;100.00;96871.38;5041843;28;20216;-71
2022/10/05 07:16:24;;;;;;;8.43;4.47;;;;;;;9.75;100.00;96875.47;5042261;28;20209;-70
2022/10/05 07:19:05;;;;;;;9.87;4.23;;;;;;;9.85;100.00;96879.63;5042585;28;20201;-70
2022/10/05 07:21:38;;;;;;;11.73;5.10;;;;;;;10.02;100.00;96880.56;5041791;28;20396;-70
2022/10/05 07:24:15;;;;;;;12.80;4.80;;;;;;;10.15;100.00;96889.66;5041643;28;20256;-69
2022/10/05 07:26:45;;;;;;;13.83;5.10;;;;;;;10.26;100.00;96893.81;5041980;28;20209;-71
2022/10/05 07:29:23;;;;;;;11.97;4.87;;;;;;;10.38;100.00;96894.19;5042021;28;20202;-71
2022/10/05 07:32:05;;;;;;;8.90;5.10;;;;;;;10.51;100.00;96901.63;5041630;28;20224;-71
2022/10/05 07:34:42;;;;;;;9.87;4.90;;;;;;;10.51;100.00;96893.72;5041660;28;20201;-70
2022/10/05 07:40:06;;;;;;;9.47;4.50;;;;;;;10.78;100.00;96898.72;5044141;28;20376;-71
2022/10/05 07:42:45;;;;;;;9.83;4.33;;;;;;;10.89;100.00;96895.78;5045588;28;20196;-70
2022/10/05 07:45:23;;;;;;;10.13;4.50;;;;;;;10.99;100.00;96897.28;5045913;28;20211;-71
2022/10/05 07:47:54;;;;;;;9.23;4.70;;;;;;;10.99;100.00;96892.81;5045703;28;20216;-71
2022/10/05 07:50:26;;;;;;;8.67;3.90;;;;;;;11.16;100.00;96893.66;5045738;28;20307;-72
2022/10/05 07:52:56;;;;;;;10.77;4.90;;;;;;;11.28;100.00;96893.16;5045263;28;20212;-71
2022/10/05 07:55:26;;;;;;;7.50;3.93;;;;;;;11.38;100.00;96893.84;5045397;28;20203;-72
2022/10/05 07:58:02;;;;;;;9.70;4.47;;;;;;;11.62;100.00;96896.44;5045427;28;20772;-71
2022/10/05 08:00:54;;;;;;;7.60;4.23;;;;;;;11.79;100.00;96892.81;5045477;28;20239;-72
2022/10/05 08:03:29;;;;;;;11.23;4.87;;;;;;;11.83;100.00;96896.75;5045211;28;20658;-71
2022/10/05 08:05:58;;;;;;;10.83;4.87;;;;;;;11.91;100.00;96894.09;5045411;28;20472;-72
2022/10/05 08:08:32;;;;;;;13.83;5.33;;;;;;;12.07;100.00;96892.22;5045274;28;20227;-70
2022/10/05 08:11:05;;;;;;;12.37;5.87;;;;;;;12.13;100.00;96891.56;5045353;28;20278;-70
2022/10/05 08:13:38;;;;;;;12.43;5.47;;;;;;;12.40;100.00;96894.56;5044581;28;20209;-72
2022/10/05 08:16:12;;;;;;;17.30;6.03;;;;;;;12.48;100.00;96896.34;5045212;28;20205;-71
2022/10/05 08:18:54;;;;;;;14.53;5.83;;;;;;;12.70;100.00;96895.56;5045477;28;20201;-72
2022/10/05 08:21:25;;;;;;;9.43;4.93;;;;;;;12.80;100.00;96892.56;5044756;28;20232;-71
2022/10/05 08:23:56;;;;;;;12.73;4.77;;;;;;;13.16;100.00;96892.81;5044187;28;20220;-71
2022/10/05 08:26:32;;;;;;;11.27;5.73;;;;;;;13.28;100.00;96894.06;5044927;28;20237;-72
2022/10/05 08:29:09;;;;;;;12.73;6.13;;;;;;;13.30;100.00;96892.03;5045203;28;20603;-70
2022/10/05 08:31:39;;;;;;;14.07;5.87;;;;;;;13.55;100.00;96895.13;5044905;28;20223;-71
2022/10/05 08:34:20;;;;;;;18.15;5.00;;;;;;;13.89;100.00;96892.00;5044197;28;20630;-69
2022/10/05 08:36:56;;;;;;;9.40;4.70;;;;;;;13.98;100.00;96891.72;5044883;28;20201;-70
2022/10/05 08:39:25;;;;;;;11.98;5.65;;;;;;;14.01;100.00;96894.00;5044624;28;20745;-71
2022/10/05 08:42:27;;;;;;;11.25;5.50;;;;;;;14.20;100.00;96893.50;5044591;28;20232;-72
2022/10/05 08:45:22;;;;;;;15.65;5.28;;;;;;;14.23;100.00;96899.25;5044781;28;20788;-70
2022/10/05 08:48:14;;;;;;;11.65;4.95;;;;;;;14.29;100.00;96890.56;5044696;28;20578;-72
2022/10/05 08:51:07;;;;;;;10.30;4.30;;;;;;;14.49;100.00;96890.84;5043977;28;20228;-71
2022/10/05 08:53:55;;;;;;;7.13;3.80;;;;;;;14.63;100.00;96888.16;5044190;28;20205;-72
2022/10/05 08:56:33;;;;;;;9.05;4.50;;;;;;;14.68;100.00;96894.53;5044262;28;20661;-71
2022/10/05 08:59:28;;;;;;;8.85;4.60;;;;;;;14.86;100.00;96891.47;5044245;28;20205;-72
2022/10/05 09:02:15;;;;;;;8.98;4.68;;;;;;;15.12;100.00;96887.28;5044388;28;20356;-70
2022/10/05 09:04:57;;;;;;;20.25;4.45;;;;;;;15.21;100.00;96888.00;5044266;28;20207;-71
2022/10/05 09:07:45;;;;;;;7.55;4.65;;;;;;;15.11;100.00;96882.97;5044195;28;20208;-70
2022/10/05 09:10:40;;;;;;;8.77;4.75;;;;;;;15.25;100.00;96887.44;5044499;28;20231;-71
2022/10/05 09:13:28;;;;;;;7.40;4.18;;;;;;;15.34;100.00;96886.31;5043390;28;20209;-72
2022/10/05 09:16:22;;;;;;;10.57;4.93;;;;;;;15.40;100.00;96880.22;5044053;28;20580;-72
2022/10/05 09:19:04;;;;;;;10.68;4.82;;;;;;;15.47;100.00;96891.72;5044027;28;20592;-72
2022/10/05 09:21:41;;;;;;;9.55;5.22;;;;;;;15.52;100.00;96889.31;5043609;28;20217;-71
2022/10/05 09:24:23;;;;;;;8.35;4.80;;;;;;;15.61;99.59;96890.81;5043168;28;20569;-70
2022/10/05 09:27:00;;;;;;;12.63;4.70;;;;;;;15.87;99.29;96883.84;5044007;28;20216;-72
2022/10/05 09:30:04;;;;;;;8.05;4.03;;;;;;;15.95;97.55;96879.22;5043905;28;20209;-72
2022/10/05 09:32:56;;;;;;;6.22;4.00;;;;;;;15.99;98.59;96885.78;4992207;28;20563;-71
2022/10/05 09:35:37;;;;;;;9.63;4.10;;;;;;;16.08;96.83;96883.81;5043935;28;20201;-72
2022/10/05 09:38:24;;;;;;;7.25;4.13;;;;;;;16.21;97.88;96890.03;5043560;28;20201;-72
2022/10/05 09:41:39;;;;;;;11.25;4.40;;;;;;;16.26;95.41;96886.81;5043117;28;20718;-69
2022/10/05 09:45:01;;;;;;;8.55;4.57;;;;;;;16.40;95.46;96886.69;5042571;28;20212;-70
2022/10/05 09:48:15;;;;;;;7.10;3.88;;;;;;;16.56;95.05;96876.53;4981332;28;20204;-72
2022/10/05 09:51:12;;;;;;;8.05;4.10;;;;;;;16.74;96.02;96881.31;4974605;28;20477;-73
2022/10/05 09:54:00;;;;;;;8.52;4.40;;;;;;;16.86;95.93;96885.03;5042219;28;20201;-72
2022/10/05 09:56:50;;;;;;;6.70;3.67;;;;;;;16.86;92.66;96885.03;5043147;28;20233;-71
2022/10/05 09:59:39;;;;;;;7.15;3.72;;;;;;;16.89;92.04;96884.63;5043165;28;20201;-71
2022/10/05 10:02:30;;;;;;;5.20;3.17;;;;;;;16.79;92.26;96878.84;5039655;28;20264;-72
2022/10/05 10:05:18;;;;;;;2.38;1.80;;;;;;;16.90;91.81;96873.78;5042506;28;20212;-71
2022/10/05 10:08:19;;;;;;;7.78;4.03;;;;;;;17.10;91.94;96858.69;5043539;28;20232;-72
2022/10/05 10:11:06;;;;;;;6.28;3.85;;;;;;;17.18;90.61;96864.66;5042913;28;20221;-72
2022/10/05 10:13:52;;;;;;;6.57;4.30;;;;;;;17.27;92.31;96867.97;5042173;28;20215;-72
2022/10/05 10:16:36;;;;;;;6.93;4.10;;;;;;;17.31;92.69;96869.19;5042624;28;20229;-72
2022/10/05 10:19:12;;;;;;;6.18;3.75;;;;;;;17.45;91.65;96863.69;5042788;28;20688;-70
2022/10/05 10:22:16;;;;;;;6.57;3.90;;;;;;;17.68;90.72;96856.13;5042953;28;20638;-72
2022/10/05 10:25:15;;;;;;;5.68;3.70;;;;;;;17.77;90.36;96853.03;5042206;28;20212;-71
2022/10/05 10:28:04;;;;;;;7.25;3.50;;;;;;;18.05;90.89;96853.59;5042712;28;20205;-71
2022/10/05 10:31:05;;;;;;;5.78;3.25;;;;;;;18.11;88.81;96854.59;5043014;28;20460;-72
2022/10/05 10:33:56;;;;;;;5.95;3.55;;;;;;;18.05;88.69;96845.59;5022074;28;20208;-72
2022/10/05 10:36:39;;;;;;;8.65;3.60;;;;;;;18.25;90.46;96848.25;5042785;28;20765;-71
2022/10/05 10:39:12;;;;;;;5.05;3.40;;;;;;;18.31;88.15;96850.91;5042321;28;20235;-72
2022/10/05 10:41:59;;;;;;;5.32;3.20;;;;;;;18.48;90.67;96844.06;5042495;28;20665;-72
2022/10/05 10:44:54;;;;;;;7.03;2.97;;;;;;;18.53;86.68;96850.44;5042060;28;20197;-72
2022/10/05 10:47:34;;;;;;;4.68;2.67;;;;;;;18.55;87.47;96847.53;5042131;28;20680;-72
2022/10/05 10:50:27;;;;;;;6.38;2.90;;;;;;;18.74;86.57;96842.13;5042256;28;20220;-73
2022/10/05 10:53:19;;;;;;;7.30;2.65;;;;;;;18.88;86.21;96833.00;5041676;28;20670;-72
2022/10/05 10:55:55;;;;;;;6.40;3.15;;;;;;;18.95;87.88;96828.44;5042501;28;20201;-71
2022/10/05 10:58:47;;;;;;;4.72;2.35;;;;;;;19.07;87.79;96832.91;5042476;28;20208;-71
2022/10/05 11:01:30;;;;;;;5.45;3.00;;;;;;;19.13;86.85;96823.22;5042171;28;20410;-71
2022/10/05 11:04:26;;;;;;;4.57;2.30;;;;;;;19.20;84.54;96819.47;5041443;28;20205;-73
2022/10/05 11:07:21;;;;;;;5.78;2.88;;;;;;;19.35;83.01;96821.84;5042047;28;20608;-70
2022/10/05 11:10:00;;;;;;;2.85;2.00;;;;;;;19.26;85.70;96820.47;5042764;28;20556;-72
2022/10/05 11:12:54;;;;;;;7.15;2.53;;;;;;;19.38;84.47;96813.41;5041558;28;20201;-72
2022/10/05 11:16:01;;;;;;;4.50;2.95;;;;;;;19.35;81.95;96806.63;5046040;28;20208;-72
2022/10/05 11:18:46;;;;;;;4.70;2.45;;;;;;;19.40;81.02;96805.97;5029331;28;20201;-73
2022/10/05 11:21:30;;;;;;;4.43;2.10;;;;;;;19.59;79.54;96806.63;5046071;28;20224;-72
2022/10/05 11:24:37;;;;;;;3.50;2.00;;;;;;;19.70;80.87;96799.75;5045659;28;20204;-73
2022/10/05 11:27:19;;;;;;;3.72;2.20;;;;;;;19.61;80.69;96801.88;5046112;28;20663;-72
2022/10/05 11:30:20;;;;;;;3.85;1.83;;;;;;;19.79;80.12;96799.25;5046259;28;20236;-72
2022/10/05 11:33:10;;;;;;;3.47;1.95;;;;;;;19.79;80.33;96788.56;5020075;28;20193;-72
2022/10/05 11:36:33;;;;;;;2.53;1.80;;;;;;;19.99;77.48;96799.09;5045658;28;20288;-71
2022/10/05 11:39:38;;;;;;;2.83;1.70;;;;;;;20.14;76.82;96794.19;5002863;28;20209;-72
2022/10/05 11:42:47;;;;;;;5.70;1.58;;;;;;;20.39;73.81;96795.75;5040379;28;20547;-72
2022/10/05 11:45:21;;;;;;;2.38;1.40;;;;;;;20.34;72.97;96784.88;5045640;28;20204;-72
2022/10/05 11:48:21;;;;;;;2.20;1.40;;;;;;;20.39;73.67;96782.34;5045629;28;20296;-72
2022/10/05 11:51:03;;;;;;;2.35;1.70;;;;;;;20.56;74.47;96773.50;5045325;28;20217;-72
2022/10/05 11:53:37;;;;;;;3.97;2.20;;;;;;;20.71;72.60;96771.25;5044746;28;20205;-73
2022/10/05 11:56:13;;;;;;;5.75;1.88;;;;;;;20.68;71.64;96762.84;5045550;28;20775;-70
2022/10/05 11:58:47;;;;;;;1.52;1.33;;;;;;;20.79;69.80;96762.91;5045512;28;20197;-71
2022/10/05 12:01:19;;;;;;;4.45;1.90;;;;;;;20.93;68.65;96759.00;5045023;28;20725;-70
2022/10/05 12:03:55;;;;;;;5.97;2.10;;;;;;;20.96;68.65;96762.06;5044773;28;20242;-73
2022/10/05 12:06:37;;;;;;;3.88;1.60;;;;;;;21.15;68.95;96752.88;5045216;28;20590;-73
2022/10/05 12:09:17;;;;;;;3.88;1.70;;;;;;;21.22;68.02;96750.09;5045169;28;20674;-72
2022/10/05 12:11:59;;;;;;;4.00;1.80;;;;;;;21.26;67.65;96751.28;5045245;28;20935;-73
2022/10/05 12:14:37;;;;;;;2.65;1.30;;;;;;;21.26;68.15;96748.59;5044345;28;20201;-73
2022/10/05 12:17:11;;;;;;;2.60;1.80;;;;;;;21.36;65.92;96747.00;5044991;28;20208;-72
2022/10/05 12:19:43;;;;;;;2.05;1.55;;;;;;;21.44;66.22;96750.13;5045457;28;20205;-71
2022/10/05 12:22:15;;;;;;;4.47;1.67;;;;;;;21.65;65.68;96738.88;5044774;28;20221;-72
2022/10/05 12:25:02;;;;;;;3.25;1.60;;;;;;;21.68;67.88;96740.28;5043956;28;20566;-71
2022/10/05 12:27:34;;;;;;;2.65;1.80;;;;;;;21.64;66.66;96739.94;5044621;28;20566;-71
2022/10/05 12:30:06;;;;;;;2.75;1.50;;;;;;;21.70;65.49;96743.53;5044622;28;20206;-72